Wataga, Illinois
Current Conditions -  °F | °C
As of 11:55 AM on Saturday 20 Dec 2014 (Local Time) from KGBG Reporting Station
Overcast Overcast  
Wind Chill: 27°   Ceiling: 2800
Heat Index: 33°   Visibility: 7mi
Dew Point: 29°   Wind: 7mph
Humidity: 84%   Direction: 140°SE
Pressure: 30.23"   Gusts: NA
Location:  41.03°N, 90.28°W
Report Text: KGBG 201755Z AUTO 14006KT 7SM SCT016 OVC028 01/M02 A3023 RMK AO2 T00051019 10005 21017
Loading
Personal Weather Stations






























Interactive Weather Map New forecast layout! Learn more

10-Day Weather Forecast

Advertisements
Track Severe Weather on mobile